Time;durP1;ratioP1;P1;durP2;ratioP2;P2;SDS_P1;SDS_P2;PMS_P1;PMS_P2;Temp;Humidity;BMP_temperature;BMP_pressure;BME280_temperature;BME280_humidity;BME280_pressure;Samples;Min_cycle;Max_cycle;Signal;HPM_P1;HPM_P2
2021/07/08 00:00:07;;;;;;;5.90;3.87;;;;;;;23.36;63.03;101202.66;1704809;81;21113;-68
2021/07/08 00:02:33;;;;;;;7.30;4.00;;;;;;;23.31;62.36;101200.23;1735820;81;21755;-67
2021/07/08 00:04:59;;;;;;;7.85;4.47;;;;;;;23.22;62.27;101208.90;1733687;81;21523;-68
2021/07/08 00:07:26;;;;;;;7.67;4.40;;;;;;;23.16;62.39;101208.29;1743622;81;21716;-68
2021/07/08 00:09:53;;;;;;;8.10;4.20;;;;;;;23.14;62.40;101212.50;1745041;80;21058;-66
2021/07/08 00:12:19;;;;;;;7.67;4.40;;;;;;;23.12;62.55;101204.33;1739999;80;21512;-72
2021/07/08 00:14:46;;;;;;;9.50;3.92;;;;;;;23.10;62.76;101209.02;1728551;81;21049;-66
2021/07/08 00:17:12;;;;;;;6.85;4.45;;;;;;;23.09;62.89;101212.74;1740912;81;21767;-67
2021/07/08 00:19:40;;;;;;;6.45;4.12;;;;;;;23.11;62.95;101217.41;1737530;80;21082;-68
2021/07/08 00:22:07;;;;;;;7.00;4.25;;;;;;;23.12;63.03;101210.52;1739805;81;21547;-68
2021/07/08 00:24:33;;;;;;;6.60;3.95;;;;;;;23.12;63.05;101215.06;1740994;81;21054;-68
2021/07/08 00:26:59;;;;;;;7.58;4.50;;;;;;;23.11;63.12;101217.41;1738061;82;21784;-73
2021/07/08 00:29:27;;;;;;;6.37;3.83;;;;;;;23.08;63.19;101219.97;1740710;81;21033;-67
2021/07/08 00:31:54;;;;;;;6.20;4.65;;;;;;;23.05;63.28;101214.08;1706757;82;21154;-67
2021/07/08 00:34:20;;;;;;;6.75;3.92;;;;;;;23.02;63.34;101215.30;1712831;83;21141;-66
2021/07/08 00:36:48;;;;;;;7.37;4.12;;;;;;;22.99;63.47;101215.66;1692059;84;21410;-68
2021/07/08 00:39:15;;;;;;;6.17;3.90;;;;;;;22.96;63.52;101222.25;1707649;83;21062;-68
2021/07/08 00:41:42;;;;;;;8.63;4.12;;;;;;;22.94;63.45;101221.58;1691069;84;21090;-67
2021/07/08 00:44:09;;;;;;;7.42;4.20;;;;;;;22.99;63.50;101226.40;1713287;83;21036;-68
2021/07/08 00:46:35;;;;;;;7.65;3.52;;;;;;;23.03;63.26;101218.29;1710984;83;21620;-71
2021/07/08 00:49:03;;;;;;;6.10;4.17;;;;;;;23.07;63.28;101227.69;1704156;83;21050;-67
2021/07/08 00:51:29;;;;;;;7.30;4.50;;;;;;;23.08;63.19;101223.14;1707470;83;21102;-68
2021/07/08 00:53:57;;;;;;;6.53;4.33;;;;;;;23.07;63.21;101220.16;1659262;82;21062;-70
2021/07/08 00:56:23;;;;;;;7.00;4.30;;;;;;;23.03;63.25;101223.66;1710953;83;21094;-65
2021/07/08 00:59:08;;;;;;;6.30;4.17;;;;;;;22.99;63.06;101225.06;1708677;81;21062;-65
2021/07/08 01:01:36;;;;;;;6.53;4.10;;;;;;;22.95;63.09;101227.80;1711766;83;21138;-71
2021/07/08 01:04:03;;;;;;;5.55;3.65;;;;;;;22.92;63.21;101232.19;1718309;83;21098;-67
2021/07/08 01:06:31;;;;;;;10.58;4.80;;;;;;;22.89;63.28;101232.55;1715686;83;21942;-67
2021/07/08 01:09:01;;;;;;;7.35;4.58;;;;;;;22.88;63.39;101226.84;1690880;83;21437;-67
2021/07/08 01:11:28;;;;;;;7.90;4.15;;;;;;;22.93;63.35;101229.80;1719858;83;21639;-67
2021/07/08 01:13:55;;;;;;;7.90;4.20;;;;;;;22.94;63.44;101233.66;1703845;83;21580;-66
2021/07/08 01:16:24;;;;;;;6.37;3.98;;;;;;;22.95;63.81;101235.84;1716755;83;21109;-66
2021/07/08 01:18:52;;;;;;;15.23;4.20;;;;;;;22.93;64.09;101235.17;1712159;83;21095;-65
2021/07/08 01:21:34;;;;;;;7.40;3.85;;;;;;;22.90;64.30;101242.28;1715574;83;21105;-68
2021/07/08 01:24:04;;;;;;;7.10;4.37;;;;;;;22.86;64.51;101243.64;1684936;83;21260;-69
2021/07/08 01:26:31;;;;;;;11.90;4.95;;;;;;;22.82;64.66;101242.66;1711695;82;21085;-67
2021/07/08 01:28:57;;;;;;;7.80;3.62;;;;;;;22.83;64.77;101238.15;1685792;83;21062;-67
2021/07/08 01:31:25;;;;;;;6.20;3.95;;;;;;;22.87;64.84;101242.12;1711125;83;21073;-66
2021/07/08 01:33:52;;;;;;;7.45;4.37;;;;;;;22.90;65.21;101239.59;1710542;83;21610;-67
2021/07/08 01:36:18;;;;;;;6.85;4.10;;;;;;;22.92;65.22;101240.23;1674934;83;21078;-66
2021/07/08 01:38:45;;;;;;;6.87;3.58;;;;;;;22.91;65.27;101247.95;1711649;82;21110;-68
2021/07/08 01:41:11;;;;;;;8.45;3.60;;;;;;;22.90;65.27;101251.15;1713765;81;21086;-66
2021/07/08 01:43:40;;;;;;;6.92;3.25;;;;;;;22.92;65.22;101248.28;1707235;83;21073;-65
2021/07/08 01:46:13;;;;;;;8.35;4.03;;;;;;;22.91;65.06;101242.58;1711947;83;21066;-67
2021/07/08 01:48:41;;;;;;;7.00;3.70;;;;;;;22.89;64.96;101244.11;1708587;83;21106;-67
2021/07/08 01:51:25;;;;;;;11.15;3.80;;;;;;;22.90;64.94;101242.28;1712226;83;21047;-67
2021/07/08 01:53:52;;;;;;;8.63;3.92;;;;;;;22.93;65.05;101240.55;1702014;82;21051;-69
2021/07/08 01:56:18;;;;;;;6.03;3.70;;;;;;;22.96;65.05;101245.06;1710266;83;21149;-67
2021/07/08 01:58:45;;;;;;;7.33;3.50;;;;;;;22.98;64.96;101249.73;1682758;83;21070;-70
2021/07/08 02:01:12;;;;;;;6.72;3.42;;;;;;;22.99;64.95;101255.92;1715664;83;21553;-67
2021/07/08 02:03:40;;;;;;;6.55;4.00;;;;;;;22.99;64.80;101245.19;1689969;84;21064;-70
2021/07/08 02:06:06;;;;;;;5.33;3.27;;;;;;;22.96;64.48;101245.06;1667820;84;21062;-67
2021/07/08 02:08:35;;;;;;;7.12;3.40;;;;;;;22.95;64.35;101247.92;1676203;84;21152;-67
2021/07/08 02:11:01;;;;;;;7.45;3.27;;;;;;;22.92;64.25;101252.31;1676944;84;21058;-68
2021/07/08 02:13:27;;;;;;;6.80;3.52;;;;;;;22.93;64.16;101248.59;1710448;83;21705;-67
2021/07/08 02:15:54;;;;;;;5.22;3.27;;;;;;;22.96;63.87;101248.23;1709642;83;21122;-66
2021/07/08 02:18:20;;;;;;;5.12;2.83;;;;;;;22.99;63.77;101262.11;1685366;83;21536;-67
2021/07/08 02:20:47;;;;;;;6.70;3.83;;;;;;;23.01;64.03;101259.25;1714857;83;21156;-72
2021/07/08 02:23:13;;;;;;;9.25;3.75;;;;;;;23.01;63.92;101260.59;1714510;83;21692;-66
2021/07/08 02:25:39;;;;;;;7.80;3.27;;;;;;;23.00;63.96;101257.08;1714617;83;21057;-68
2021/07/08 02:28:06;;;;;;;5.30;3.20;;;;;;;23.02;63.89;101269.50;1682055;83;21086;-67
2021/07/08 02:30:32;;;;;;;7.10;3.42;;;;;;;22.99;63.91;101266.14;1684098;83;21628;-67
2021/07/08 02:32:59;;;;;;;6.25;3.35;;;;;;;22.97;63.73;101261.98;1712567;81;21106;-68
2021/07/08 02:35:26;;;;;;;5.22;2.75;;;;;;;22.98;63.75;101266.32;1706894;83;21723;-66
2021/07/08 02:37:53;;;;;;;6.15;3.33;;;;;;;23.03;63.05;101274.66;1711371;83;21066;-66
2021/07/08 02:40:23;;;;;;;7.85;3.80;;;;;;;23.04;62.80;101268.80;1706165;83;21070;-67
2021/07/08 02:42:51;;;;;;;6.72;3.52;;;;;;;23.04;62.99;101268.28;1714708;83;22103;-70
2021/07/08 02:45:27;;;;;;;11.88;3.27;;;;;;;23.04;63.01;101270.14;1684593;83;21982;-66
2021/07/08 02:47:54;;;;;;;6.00;2.83;;;;;;;23.02;63.09;101270.32;1653712;85;21058;-66
2021/07/08 02:50:21;;;;;;;6.03;3.42;;;;;;;23.04;63.15;101273.65;1668255;84;21577;-67
2021/07/08 02:52:48;;;;;;;6.72;3.67;;;;;;;23.05;63.27;101271.78;1663360;85;21083;-66
2021/07/08 02:55:14;;;;;;;8.35;3.47;;;;;;;23.08;63.27;101271.45;1704562;81;21046;-66
2021/07/08 02:57:41;;;;;;;6.37;3.55;;;;;;;23.14;62.65;101266.19;1706067;83;21145;-67
2021/07/08 03:00:09;;;;;;;5.62;3.17;;;;;;;23.18;62.35;101267.50;1686200;83;21125;-67
2021/07/08 03:02:36;;;;;;;10.78;3.87;;;;;;;23.22;62.20;101273.81;1710606;83;21015;-66
2021/07/08 03:05:05;;;;;;;6.37;3.92;;;;;;;23.25;61.90;101272.97;1712804;81;21077;-68
2021/07/08 03:07:32;;;;;;;5.78;3.30;;;;;;;23.28;61.51;101273.91;1665098;84;21074;-67
2021/07/08 03:09:59;;;;;;;7.22;3.80;;;;;;;23.33;61.51;101274.22;1648410;84;21754;-67
2021/07/08 03:12:26;;;;;;;6.67;3.67;;;;;;;23.35;61.45;101276.69;1710817;83;21556;-68
2021/07/08 03:14:52;;;;;;;8.40;3.80;;;;;;;23.33;61.06;101279.59;1705920;83;21121;-67
2021/07/08 03:17:18;;;;;;;5.97;3.30;;;;;;;23.33;61.28;101282.77;1703135;83;21564;-67
2021/07/08 03:19:45;;;;;;;7.50;3.90;;;;;;;23.35;61.12;101278.03;1707042;83;21121;-66
2021/07/08 03:22:12;;;;;;;7.85;3.72;;;;;;;23.43;61.23;101281.16;1704504;83;22352;-68
2021/07/08 03:24:38;;;;;;;6.45;3.75;;;;;;;23.50;60.75;101279.38;1709472;81;21119;-68
2021/07/08 03:27:05;;;;;;;7.47;3.92;;;;;;;23.54;60.88;101284.72;1699243;83;21612;-66
2021/07/08 03:29:31;;;;;;;6.08;3.15;;;;;;;23.54;60.94;101285.55;1674461;83;21118;-67
2021/07/08 03:31:58;;;;;;;6.97;4.30;;;;;;;23.57;60.67;101284.34;1682622;83;21086;-67
2021/07/08 03:34:24;;;;;;;5.37;3.25;;;;;;;23.60;60.56;101285.81;1735130;80;23337;-68
2021/07/08 03:36:51;;;;;;;5.75;3.42;;;;;;;23.61;60.62;101288.84;1726174;81;21083;-65
2021/07/08 03:39:18;;;;;;;6.67;3.67;;;;;;;23.61;60.65;101291.52;1653514;83;21066;-65
2021/07/08 03:41:44;;;;;;;10.28;3.45;;;;;;;23.59;60.50;101287.67;1676878;83;21782;-67
2021/07/08 03:44:11;;;;;;;6.92;3.85;;;;;;;23.61;60.52;101292.86;1656082;84;21020;-68
2021/07/08 03:46:37;;;;;;;6.47;3.87;;;;;;;23.64;60.69;101293.32;1724348;81;21054;-68
2021/07/08 03:49:03;;;;;;;9.50;3.62;;;;;;;23.71;60.60;101298.78;1703350;81;21549;-67
2021/07/08 03:51:31;;;;;;;6.03;3.47;;;;;;;23.76;60.24;101299.05;1737877;80;21007;-66
2021/07/08 03:53:57;;;;;;;7.20;4.03;;;;;;;23.79;60.30;101298.67;1722442;82;21044;-68
2021/07/08 03:56:24;;;;;;;7.15;4.10;;;;;;;23.82;60.24;101301.03;1669230;82;21033;-65
2021/07/08 03:58:51;;;;;;;5.62;3.77;;;;;;;23.83;60.21;101303.19;1738553;80;21598;-65
2021/07/08 04:01:18;;;;;;;5.97;3.58;;;;;;;23.83;60.27;101307.22;1721915;82;22277;-68
2021/07/08 04:03:45;;;;;;;7.40;4.28;;;;;;;23.84;60.18;101306.19;1725667;80;21052;-67
2021/07/08 04:06:11;;;;;;;6.87;3.95;;;;;;;23.83;59.76;101304.54;1696305;82;21592;-66
2021/07/08 04:08:37;;;;;;;6.67;4.35;;;;;;;23.84;59.77;101304.35;1747192;80;21014;-68
2021/07/08 04:11:04;;;;;;;6.22;3.98;;;;;;;23.85;59.84;101306.52;1732535;80;21578;-68
2021/07/08 04:13:30;;;;;;;6.03;3.67;;;;;;;23.89;59.68;101312.69;1677121;83;21638;-65
2021/07/08 04:15:58;;;;;;;6.20;4.10;;;;;;;23.97;59.81;101314.41;1674043;83;21091;-70
2021/07/08 04:18:24;;;;;;;5.20;3.80;;;;;;;24.02;59.67;101317.88;1737653;80;21445;-67
2021/07/08 04:20:51;;;;;;;12.23;4.30;;;;;;;24.04;59.82;101321.20;1734332;80;21030;-67
2021/07/08 04:23:17;;;;;;;6.12;3.98;;;;;;;24.04;59.90;101322.55;1730391;80;21142;-67
2021/07/08 04:25:44;;;;;;;6.58;4.12;;;;;;;24.06;59.86;101327.25;1716149;80;21415;-66
2021/07/08 04:28:12;;;;;;;7.95;4.45;;;;;;;24.07;59.80;101321.69;1729648;80;21018;-72
2021/07/08 04:30:40;;;;;;;5.80;3.75;;;;;;;24.09;59.59;101327.70;1726004;80;21032;-66
2021/07/08 04:33:08;;;;;;;11.45;4.78;;;;;;;24.10;59.38;101327.19;1730205;80;21160;-66
2021/07/08 04:35:41;;;;;;;5.60;3.77;;;;;;;24.10;59.45;101326.66;1712792;81;22328;-67
2021/07/08 04:38:09;;;;;;;7.85;4.25;;;;;;;24.15;59.89;101330.13;1747037;80;20981;-64
2021/07/08 04:40:36;;;;;;;14.80;4.22;;;;;;;24.25;59.77;101337.91;1747186;80;21089;-64
2021/07/08 04:43:03;;;;;;;7.72;4.03;;;;;;;24.29;59.34;101334.65;1704044;81;21049;-65
2021/07/08 04:45:30;;;;;;;7.55;4.72;;;;;;;24.36;59.25;101344.63;1733576;80;21150;-69
2021/07/08 04:47:58;;;;;;;6.40;4.42;;;;;;;24.38;59.54;101346.12;1745378;80;21010;-65
2021/07/08 04:50:26;;;;;;;7.97;4.80;;;;;;;24.40;59.35;101345.93;1721564;80;21150;-69
2021/07/08 04:52:53;;;;;;;6.35;4.85;;;;;;;24.43;59.50;101346.90;1743393;80;21131;-66
2021/07/08 04:55:22;;;;;;;8.28;4.65;;;;;;;24.45;59.44;101346.19;1740930;80;21046;-65
2021/07/08 04:57:50;;;;;;;6.47;4.37;;;;;;;24.46;59.40;101347.34;1741366;80;21021;-65
2021/07/08 05:00:21;;;;;;;7.45;4.60;;;;;;;24.48;59.27;101348.50;1743680;80;21148;-71
2021/07/08 05:02:49;;;;;;;14.50;4.53;;;;;;;24.51;59.55;101344.09;1741154;80;21575;-64
2021/07/08 05:05:15;;;;;;;8.00;4.65;;;;;;;24.55;59.03;101352.63;1734935;80;21578;-71
2021/07/08 05:07:42;;;;;;;6.05;4.20;;;;;;;24.64;58.90;101352.30;1743360;80;21069;-66
2021/07/08 05:10:15;;;;;;;7.08;4.67;;;;;;;24.73;59.02;101350.33;1742130;80;21056;-68
2021/07/08 05:12:42;;;;;;;7.17;4.17;;;;;;;24.76;58.70;101351.26;1716011;80;21234;-69
2021/07/08 05:15:12;;;;;;;7.05;4.87;;;;;;;24.76;58.56;101353.13;1713487;81;21043;-67
2021/07/08 05:17:38;;;;;;;7.28;4.92;;;;;;;24.79;58.37;101360.30;1742947;80;21089;-65
2021/07/08 05:20:07;;;;;;;6.90;4.95;;;;;;;24.79;58.49;101359.48;1745587;80;21028;-65
2021/07/08 05:22:34;;;;;;;6.37;4.33;;;;;;;24.82;58.66;101361.27;1739490;80;21120;-67
2021/07/08 05:25:01;;;;;;;7.97;5.20;;;;;;;24.85;58.68;101360.06;1745907;80;21849;-66
2021/07/08 05:27:30;;;;;;;8.20;4.70;;;;;;;24.88;58.50;101363.72;1744845;80;20954;-66
2021/07/08 05:29:56;;;;;;;6.53;4.58;;;;;;;24.90;58.82;101366.19;1747359;80;20942;-70
2021/07/08 05:32:24;;;;;;;7.60;4.83;;;;;;;24.97;58.90;101362.53;1743620;80;21061;-69
2021/07/08 05:34:51;;;;;;;6.20;4.30;;;;;;;25.08;58.81;101364.38;1749020;80;21026;-70
2021/07/08 05:37:17;;;;;;;10.45;4.58;;;;;;;25.19;58.41;101371.93;1743892;80;22207;-71
2021/07/08 05:39:43;;;;;;;10.95;5.40;;;;;;;25.27;58.18;101374.52;1718897;81;21009;-67
2021/07/08 05:42:10;;;;;;;6.70;4.67;;;;;;;25.33;57.80;101375.58;1748114;80;21073;-72
2021/07/08 05:44:36;;;;;;;6.85;4.50;;;;;;;25.37;57.81;101374.17;1746299;80;21025;-67
2021/07/08 05:47:04;;;;;;;9.15;5.03;;;;;;;25.43;57.85;101374.71;1747415;80;21017;-68
2021/07/08 05:49:31;;;;;;;7.42;4.65;;;;;;;25.48;57.40;101376.30;1746720;80;21166;-67
2021/07/08 05:51:57;;;;;;;8.88;5.30;;;;;;;25.54;57.61;101379.56;1747520;80;21045;-71
2021/07/08 05:54:23;;;;;;;9.78;5.28;;;;;;;25.59;56.92;101372.23;1713308;81;20982;-67
2021/07/08 05:56:50;;;;;;;7.95;5.05;;;;;;;25.63;57.11;101371.32;1722611;81;21473;-68
2021/07/08 05:59:16;;;;;;;7.08;5.45;;;;;;;25.67;57.54;101376.13;1746962;80;21043;-67
2021/07/08 06:01:42;;;;;;;7.45;4.87;;;;;;;25.70;57.06;101368.95;1716708;80;21732;-66
2021/07/08 06:04:09;;;;;;;9.90;5.08;;;;;;;25.71;56.96;101371.98;1745101;80;20951;-69
2021/07/08 06:06:36;;;;;;;8.48;4.80;;;;;;;25.75;56.91;101371.89;1716345;80;20994;-68
2021/07/08 06:09:02;;;;;;;9.35;5.10;;;;;;;25.81;56.55;101367.58;1746129;80;21354;-67
2021/07/08 06:11:28;;;;;;;7.62;4.60;;;;;;;25.88;56.78;101363.56;1744877;80;20983;-68
2021/07/08 06:13:55;;;;;;;9.83;4.83;;;;;;;25.93;56.36;101370.02;1721302;81;21406;-66
2021/07/08 06:16:21;;;;;;;7.65;5.12;;;;;;;25.96;55.34;101372.87;1724242;81;20951;-68
2021/07/08 06:18:47;;;;;;;6.80;4.80;;;;;;;25.97;55.22;101375.05;1714307;81;21891;-67
2021/07/08 06:21:14;;;;;;;8.83;4.85;;;;;;;26.00;55.67;101368.72;1725622;80;21074;-69
2021/07/08 06:23:41;;;;;;;7.92;5.58;;;;;;;26.05;55.81;101370.30;1748516;80;20990;-68
2021/07/08 06:26:07;;;;;;;6.95;4.33;;;;;;;26.07;55.57;101370.09;1681969;83;22709;-67
2021/07/08 06:28:34;;;;;;;9.28;5.22;;;;;;;26.10;55.19;101375.92;1704592;82;20987;-67
2021/07/08 06:31:02;;;;;;;7.53;4.28;;;;;;;26.18;55.22;101382.19;1686077;82;21161;-69
2021/07/08 06:33:28;;;;;;;7.03;4.00;;;;;;;26.23;55.11;101379.19;1681103;84;21056;-66
2021/07/08 06:35:54;;;;;;;7.67;4.25;;;;;;;26.29;54.85;101378.89;1670026;83;21078;-67
2021/07/08 06:38:21;;;;;;;7.10;4.55;;;;;;;26.36;55.14;101378.91;1729788;80;21069;-67
2021/07/08 06:40:49;;;;;;;7.25;4.58;;;;;;;26.42;54.89;101388.38;1712261;81;22172;-69
2021/07/08 06:43:15;;;;;;;13.55;5.00;;;;;;;26.45;54.58;101386.62;1728276;80;21000;-64
2021/07/08 06:45:41;;;;;;;9.08;4.53;;;;;;;26.50;54.10;101395.46;1726746;80;21021;-65
2021/07/08 06:48:12;;;;;;;11.70;4.85;;;;;;;26.55;53.75;101388.93;1734275;81;22131;-69
2021/07/08 06:50:39;;;;;;;13.93;4.90;;;;;;;26.61;53.98;101387.27;1736189;80;21130;-65
2021/07/08 06:53:06;;;;;;;15.60;4.67;;;;;;;26.67;53.61;101385.96;1708521;81;21062;-67
2021/07/08 06:55:34;;;;;;;8.88;5.03;;;;;;;26.72;53.14;101385.36;1714113;81;21090;-67
2021/07/08 06:58:01;;;;;;;6.00;4.03;;;;;;;26.78;53.30;101391.79;1705922;81;22261;-68
2021/07/08 07:00:30;;;;;;;8.08;4.65;;;;;;;26.82;52.46;101387.13;1729300;81;20999;-65
2021/07/08 07:02:58;;;;;;;6.53;3.87;;;;;;;26.86;52.19;101389.75;1726156;80;21939;-66
2021/07/08 07:05:25;;;;;;;7.28;4.42;;;;;;;26.90;51.88;101396.91;1704708;81;21123;-66
2021/07/08 07:07:52;;;;;;;6.58;4.28;;;;;;;26.91;51.64;101396.37;1711200;80;21086;-69
2021/07/08 07:10:21;;;;;;;5.85;3.92;;;;;;;26.94;51.84;101391.39;1724131;80;21025;-69
2021/07/08 07:12:49;;;;;;;6.90;4.05;;;;;;;26.99;51.72;101393.48;1730444;80;21071;-66
2021/07/08 07:15:16;;;;;;;7.00;3.92;;;;;;;27.05;51.51;101400.77;1728528;81;21277;-65
2021/07/08 07:17:43;;;;;;;5.12;3.42;;;;;;;27.11;51.26;101393.69;1728817;80;21025;-67
2021/07/08 07:20:11;;;;;;;6.08;4.12;;;;;;;27.17;50.63;101394.22;1727106;81;22231;-66
2021/07/08 07:22:38;;;;;;;6.42;3.83;;;;;;;27.20;50.42;101397.33;1704977;80;21095;-65
2021/07/08 07:25:06;;;;;;;5.12;3.58;;;;;;;27.22;50.12;101395.23;1729731;80;21082;-65
2021/07/08 07:27:33;;;;;;;5.87;3.62;;;;;;;27.27;50.28;101404.58;1727273;80;21936;-67
2021/07/08 07:30:05;;;;;;;7.72;3.85;;;;;;;27.31;50.30;101401.81;1726182;80;21022;-68
2021/07/08 07:32:30;;;;;;;6.25;4.10;;;;;;;27.35;50.59;101398.99;1727981;80;21692;-68
2021/07/08 07:34:56;;;;;;;5.83;4.00;;;;;;;27.40;50.30;101404.09;1729020;80;21044;-65
2021/07/08 07:37:25;;;;;;;5.60;3.77;;;;;;;27.43;50.19;101402.30;1727074;80;21252;-66
2021/07/08 07:39:52;;;;;;;7.15;3.58;;;;;;;27.46;50.50;101400.24;1729389;80;21950;-69
2021/07/08 07:42:20;;;;;;;7.50;3.90;;;;;;;27.49;50.72;101403.35;1725525;81;21263;-67
2021/07/08 07:44:48;;;;;;;5.65;3.58;;;;;;;27.58;50.27;101402.08;1724968;80;21058;-69
2021/07/08 07:47:15;;;;;;;6.45;3.80;;;;;;;27.68;49.88;101407.05;1727292;80;21119;-68
2021/07/08 07:49:43;;;;;;;5.58;3.58;;;;;;;27.78;49.03;101410.67;1729496;80;21074;-66
2021/07/08 07:52:12;;;;;;;10.35;4.03;;;;;;;27.88;48.78;101406.17;1666154;83;21388;-68
2021/07/08 07:54:38;;;;;;;5.22;3.10;;;;;;;27.97;49.01;101410.31;1665798;83;21043;-69
2021/07/08 07:57:05;;;;;;;8.18;3.90;;;;;;;28.06;47.54;101407.70;1730263;80;21018;-67
2021/07/08 07:59:33;;;;;;;4.75;2.95;;;;;;;28.16;48.14;101409.95;1735853;80;21594;-70
2021/07/08 08:02:01;;;;;;;6.78;3.58;;;;;;;28.25;47.47;101410.53;1700996;81;21050;-65
2021/07/08 08:04:30;;;;;;;7.10;3.45;;;;;;;28.31;47.41;101407.80;1732134;80;21157;-70
2021/07/08 08:09:42;;;;;;;4.95;3.17;;;;;;;28.44;45.28;101406.05;1710088;82;21070;-66
2021/07/08 08:12:09;;;;;;;10.10;4.08;;;;;;;28.54;46.06;101415.34;1729709;80;21115;-67
2021/07/08 08:14:36;;;;;;;9.90;4.37;;;;;;;28.67;45.42;101405.53;1729227;82;21706;-66
2021/07/08 08:17:04;;;;;;;7.03;4.08;;;;;;;28.77;44.93;101412.65;1732028;81;21072;-68
2021/07/08 08:19:30;;;;;;;6.28;3.50;;;;;;;28.87;44.36;101410.81;1733997;80;21446;-67
2021/07/08 08:21:56;;;;;;;5.50;3.75;;;;;;;28.96;44.85;101409.48;1728734;80;20959;-66
2021/07/08 08:24:24;;;;;;;5.33;3.37;;;;;;;29.02;44.24;101405.08;1729136;80;21076;-65
2021/07/08 08:26:52;;;;;;;5.62;3.45;;;;;;;29.08;44.12;101405.52;1735104;80;21568;-66
2021/07/08 08:29:20;;;;;;;6.92;3.50;;;;;;;29.16;43.47;101408.50;1709033;81;21243;-66
2021/07/08 08:31:48;;;;;;;5.87;3.62;;;;;;;29.23;43.05;101406.05;1728264;80;21010;-65
2021/07/08 08:34:14;;;;;;;4.95;3.02;;;;;;;29.30;42.96;101405.16;1724578;80;21050;-67
2021/07/08 08:36:40;;;;;;;6.78;2.77;;;;;;;29.34;42.85;101415.34;1724907;82;21319;-66
2021/07/08 08:39:07;;;;;;;5.90;3.58;;;;;;;29.38;43.10;101409.77;1729163;81;21039;-65
2021/07/08 08:41:34;;;;;;;6.55;3.92;;;;;;;29.41;41.86;101408.50;1726897;80;21055;-66
2021/07/08 08:44:00;;;;;;;6.95;3.77;;;;;;;29.43;41.62;101407.75;1670426;83;21530;-68
2021/07/08 08:46:28;;;;;;;5.85;2.87;;;;;;;29.48;42.46;101405.19;1732741;80;21154;-69
2021/07/08 08:48:54;;;;;;;6.05;3.33;;;;;;;29.57;41.96;101413.86;1730923;82;21037;-66
2021/07/08 08:51:22;;;;;;;6.35;3.37;;;;;;;29.64;42.45;101408.68;1727483;80;21049;-66
2021/07/08 08:53:48;;;;;;;6.72;3.65;;;;;;;29.73;40.91;101409.20;1728752;81;21129;-65
2021/07/08 08:56:15;;;;;;;5.35;3.20;;;;;;;29.81;41.57;101406.77;1728162;80;21563;-70
2021/07/08 08:58:41;;;;;;;6.45;3.50;;;;;;;29.89;41.01;101401.55;1732551;81;21831;-69
2021/07/08 09:01:08;;;;;;;5.78;3.50;;;;;;;29.97;41.17;101403.95;1728368;81;20975;-69
2021/07/08 09:03:34;;;;;;;4.92;3.02;;;;;;;30.04;40.41;101400.62;1732393;80;21062;-70
2021/07/08 09:06:06;;;;;;;5.10;3.12;;;;;;;30.01;39.58;101400.56;1726016;81;23260;-70
2021/07/08 09:08:38;;;;;;;5.10;2.77;;;;;;;30.00;39.93;101404.86;1722364;81;21621;-70
2021/07/08 09:11:10;;;;;;;7.85;3.22;;;;;;;30.01;40.52;101413.31;1701587;81;22316;-69
2021/07/08 09:14:01;;;;;;;7.40;3.90;;;;;;;30.06;40.52;101400.39;1730777;80;22369;-70
2021/07/08 09:16:35;;;;;;;5.60;3.47;;;;;;;30.10;40.69;101399.72;1726288;81;21056;-70
2021/07/08 09:19:22;;;;;;;8.38;3.12;;;;;;;30.20;40.35;101405.97;1726023;81;23310;-70
2021/07/08 09:21:52;;;;;;;6.75;3.22;;;;;;;30.31;40.48;101398.41;1725617;82;22312;-68
2021/07/08 09:24:25;;;;;;;7.40;3.42;;;;;;;30.41;39.68;101400.58;1710111;82;21079;-69
2021/07/08 09:27:09;;;;;;;6.85;3.10;;;;;;;30.49;39.41;101400.25;1732193;81;21026;-68
2021/07/08 09:29:49;;;;;;;7.28;3.30;;;;;;;30.60;39.91;101403.23;1724841;81;21055;-68
2021/07/08 09:32:23;;;;;;;5.15;3.17;;;;;;;30.71;39.44;101398.38;1726921;81;21167;-68
2021/07/08 09:34:51;;;;;;;6.37;3.50;;;;;;;30.74;40.05;101397.38;1713227;81;21631;-69
2021/07/08 09:37:26;;;;;;;6.53;3.02;;;;;;;30.82;41.16;101395.41;1721332;81;20950;-67
2021/07/08 09:39:58;;;;;;;4.90;3.05;;;;;;;30.88;40.25;101396.66;1719205;81;20974;-67
2021/07/08 09:42:44;;;;;;;6.40;3.27;;;;;;;30.93;39.50;101392.70;1743481;80;21528;-69
2021/07/08 09:45:14;;;;;;;4.35;2.10;;;;;;;30.99;39.17;101388.78;1723187;81;20994;-68
2021/07/08 09:50:43;;;;;;;7.22;2.75;;;;;;;31.20;38.81;101386.00;1788881;79;22701;-68
2021/07/08 09:53:18;;;;;;;5.65;2.92;;;;;;;31.22;37.09;101386.58;1744010;80;21307;-69
2021/07/08 09:56:37;;;;;;;5.55;2.87;;;;;;;31.28;38.82;101391.90;1762154;80;21404;-67
2021/07/08 09:58:56;;;;;;;7.30;3.12;;;;;;;31.35;37.84;101389.59;1746201;80;22237;-68
2021/07/08 10:01:25;;;;;;;4.17;2.30;;;;;;;31.42;38.02;101392.50;1743072;80;20994;-67
2021/07/08 10:03:53;;;;;;;4.53;2.55;;;;;;;31.44;38.23;101390.37;1733197;81;20979;-67
2021/07/08 10:06:20;;;;;;;4.33;2.58;;;;;;;31.45;37.65;101388.47;1732773;81;22428;-68
2021/07/08 10:08:47;;;;;;;5.20;2.90;;;;;;;31.42;37.86;101385.70;1740337;80;20935;-67
2021/07/08 10:11:19;;;;;;;5.00;2.80;;;;;;;31.42;37.43;101384.34;1744036;80;20963;-67
2021/07/08 10:13:47;;;;;;;5.10;2.87;;;;;;;31.46;37.36;101379.25;1712741;81;21024;-68
2021/07/08 10:16:14;;;;;;;5.00;3.12;;;;;;;31.52;37.47;101374.77;1702980;81;21062;-68
2021/07/08 10:18:43;;;;;;;5.85;3.35;;;;;;;31.56;37.75;101375.42;1681090;83;21750;-67
2021/07/08 10:21:10;;;;;;;5.97;2.83;;;;;;;31.63;37.03;101372.03;1702687;81;21209;-69
2021/07/08 10:23:37;;;;;;;7.25;3.33;;;;;;;31.70;36.86;101373.26;1710802;81;21054;-68
2021/07/08 10:26:06;;;;;;;6.80;3.42;;;;;;;31.73;35.70;101373.33;1679825;83;21089;-69
2021/07/08 10:28:35;;;;;;;7.25;2.62;;;;;;;31.73;35.69;101370.61;1683604;81;21282;-66
2021/07/08 10:31:02;;;;;;;5.25;3.02;;;;;;;31.64;35.74;101368.77;1713768;81;21066;-67
2021/07/08 10:33:29;;;;;;;6.33;2.80;;;;;;;31.54;35.36;101365.83;1681142;83;21089;-67
2021/07/08 10:35:57;;;;;;;4.75;3.05;;;;;;;31.42;35.78;101363.95;1709770;81;21082;-67
2021/07/08 10:38:41;;;;;;;5.00;2.83;;;;;;;31.37;36.76;101361.12;1708867;81;21105;-67
2021/07/08 10:41:17;;;;;;;10.08;2.83;;;;;;;31.38;37.36;101366.02;1713638;81;21109;-67
2021/07/08 10:43:45;;;;;;;6.05;2.83;;;;;;;31.43;37.66;101366.13;1699000;83;21623;-68
2021/07/08 10:46:16;;;;;;;5.95;2.90;;;;;;;31.49;37.58;101358.38;1684971;84;21062;-68
2021/07/08 10:48:45;;;;;;;7.62;3.00;;;;;;;31.60;37.91;101364.34;1680168;84;21192;-66
2021/07/08 10:51:25;;;;;;;5.30;3.02;;;;;;;31.72;37.63;101356.70;1664806;85;21071;-68
2021/07/08 10:53:51;;;;;;;8.28;2.90;;;;;;;31.78;37.83;101363.91;1662719;85;21095;-68
2021/07/08 10:56:21;;;;;;;6.90;2.87;;;;;;;31.84;38.23;101357.48;1650942;84;21646;-69
2021/07/08 10:58:57;;;;;;;7.12;3.10;;;;;;;31.91;36.92;101358.19;1641754;85;21088;-69
2021/07/08 11:01:30;;;;;;;6.78;3.00;;;;;;;31.95;36.80;101357.16;1662773;85;21096;-68
2021/07/08 11:04:02;;;;;;;4.60;2.77;;;;;;;32.02;37.06;101354.58;1643246;84;21533;-66
2021/07/08 11:06:38;;;;;;;4.90;2.75;;;;;;;32.07;35.69;101351.16;1681385;84;21108;-68
2021/07/08 11:09:17;;;;;;;5.85;2.83;;;;;;;32.12;36.01;101358.06;1717258;81;21042;-69
2021/07/08 11:11:53;;;;;;;10.28;3.22;;;;;;;32.15;35.26;101343.97;1700238;82;22174;-67
2021/07/08 11:14:26;;;;;;;4.75;3.05;;;;;;;32.15;35.37;101354.86;1715253;82;22305;-68
2021/07/08 11:16:58;;;;;;;5.20;3.25;;;;;;;32.17;35.29;101348.63;1710852;82;21892;-68
2021/07/08 11:19:31;;;;;;;4.62;2.50;;;;;;;32.20;34.80;101347.33;1715147;81;21074;-69
2021/07/08 11:22:14;;;;;;;5.20;2.60;;;;;;;32.23;35.14;101344.12;1692678;82;21793;-68
2021/07/08 11:24:51;;;;;;;5.40;2.60;;;;;;;32.27;34.96;101341.19;1713567;81;21095;-70
2021/07/08 11:27:33;;;;;;;5.92;2.92;;;;;;;32.33;34.15;101344.81;1717536;81;21557;-68
2021/07/08 11:30:16;;;;;;;5.80;2.50;;;;;;;32.35;32.99;101337.25;1715356;81;21020;-70
2021/07/08 11:32:58;;;;;;;6.95;2.58;;;;;;;32.38;34.32;101338.94;1721459;81;21051;-67
2021/07/08 11:35:40;;;;;;;4.35;2.70;;;;;;;32.41;34.94;101337.61;1676766;83;21086;-71